createdAt,value
2022-10-17T00:00:44.899Z,1.60
2022-10-17T00:03:11.581Z,1.25
2022-10-17T00:05:42.557Z,1.52
2022-10-17T00:08:09.937Z,1.40
2022-10-17T00:10:36.641Z,1.45
2022-10-17T00:13:03.851Z,1.85
2022-10-17T00:15:30.422Z,1.80
2022-10-17T00:17:57.053Z,2.03
2022-10-17T00:20:23.677Z,1.75
2022-10-17T00:22:50.432Z,1.40
2022-10-17T00:25:17.474Z,1.63
2022-10-17T00:27:44.355Z,1.50
2022-10-17T00:30:13.035Z,1.40
2022-10-17T00:32:39.806Z,1.65
2022-10-17T00:35:07.034Z,1.60
2022-10-17T00:37:33.849Z,2.03
2022-10-17T00:40:00.509Z,1.52
2022-10-17T00:42:27.586Z,1.50
2022-10-17T00:44:59.507Z,1.50
2022-10-17T00:47:26.326Z,1.70
2022-10-17T00:49:52.994Z,1.75
2022-10-17T00:52:24.797Z,1.65
2022-10-17T00:54:56.288Z,2.00
2022-10-17T00:57:22.957Z,1.85
2022-10-17T00:59:52.116Z,1.73
2022-10-17T01:02:20.066Z,1.65
2022-10-17T01:04:48.703Z,1.55
2022-10-17T01:07:15.459Z,1.92
2022-10-17T01:09:43.170Z,1.77
2022-10-17T01:12:18.764Z,1.60
2022-10-17T01:15:08.775Z,1.88
2022-10-17T01:17:40.572Z,2.15
2022-10-17T01:20:22.628Z,1.90
2022-10-17T01:22:49.172Z,2.78
2022-10-17T01:25:39.083Z,2.28
2022-10-17T01:28:24.547Z,2.10
2022-10-17T01:30:58.065Z,1.83
2022-10-17T01:33:32.089Z,2.97
2022-10-17T01:36:04.801Z,2.92
2022-10-17T01:38:40.394Z,3.20
2022-10-17T01:41:12.631Z,3.15
2022-10-17T01:43:41.493Z,3.65
2022-10-17T01:46:28.757Z,4.15
2022-10-17T01:48:57.250Z,4.00
2022-10-17T01:51:37.659Z,3.88
2022-10-17T01:54:22.665Z,3.78
2022-10-17T01:56:51.638Z,3.58
2022-10-17T01:59:26.289Z,4.25
2022-10-17T02:01:54.167Z,4.20
2022-10-17T02:04:22.346Z,4.55
2022-10-17T02:06:49.017Z,4.47
2022-10-17T02:09:22.930Z,3.67
2022-10-17T02:11:52.927Z,3.65
2022-10-17T02:14:33.477Z,3.83
2022-10-17T02:17:15.910Z,4.65
2022-10-17T02:19:46.631Z,4.38
2022-10-17T02:22:27.863Z,4.30
2022-10-17T02:24:59.240Z,5.60
2022-10-17T02:27:26.284Z,4.40
2022-10-17T02:30:13.775Z,4.80
2022-10-17T02:32:48.000Z,4.20
2022-10-17T02:35:21.525Z,5.22
2022-10-17T02:37:48.821Z,4.07
2022-10-17T02:40:17.098Z,4.25
2022-10-17T02:42:45.072Z,4.18
2022-10-17T02:45:12.916Z,4.35
2022-10-17T02:47:59.737Z,5.30
2022-10-17T02:50:31.929Z,5.78
2022-10-17T02:53:01.680Z,4.22
2022-10-17T02:55:36.465Z,5.40
2022-10-17T02:58:06.760Z,4.53
2022-10-17T03:00:38.935Z,3.97
2022-10-17T03:03:18.545Z,3.58
2022-10-17T03:05:45.171Z,3.05
2022-10-17T03:08:11.834Z,4.03
2022-10-17T03:10:38.580Z,3.15
2022-10-17T03:13:05.730Z,3.22
2022-10-17T03:15:36.616Z,2.55
2022-10-17T03:18:03.370Z,2.80
2022-10-17T03:20:30.047Z,3.33
2022-10-17T03:22:56.654Z,3.20
2022-10-17T03:25:23.295Z,2.80
2022-10-17T03:27:50.467Z,2.65
2022-10-17T03:30:17.104Z,3.50
2022-10-17T03:32:43.727Z,2.60
2022-10-17T03:35:14.856Z,1.92
2022-10-17T03:37:44.943Z,2.13
2022-10-17T03:40:11.648Z,2.00
2022-10-17T03:42:38.290Z,1.85
2022-10-17T03:45:05.142Z,2.30
2022-10-17T03:47:31.869Z,3.38
2022-10-17T03:49:59.123Z,3.20
2022-10-17T03:52:25.788Z,3.53
2022-10-17T03:54:52.424Z,3.00
2022-10-17T03:57:19.458Z,2.35
2022-10-17T03:59:46.382Z,2.85
2022-10-17T04:02:16.987Z,3.15
2022-10-17T04:04:43.947Z,2.60
2022-10-17T04:07:10.555Z,2.72
2022-10-17T04:09:40.785Z,3.95
2022-10-17T04:12:17.596Z,2.80
2022-10-17T04:14:44.258Z,2.85
2022-10-17T04:17:10.880Z,2.95
2022-10-17T04:19:39.993Z,2.70
2022-10-17T04:22:08.565Z,2.85
2022-10-17T04:24:37.511Z,2.90
2022-10-17T04:27:07.607Z,2.30
2022-10-17T04:29:37.601Z,2.72
2022-10-17T04:32:15.143Z,2.42
2022-10-17T04:34:58.638Z,2.80
2022-10-17T04:37:28.929Z,2.60
2022-10-17T04:39:55.744Z,2.60
2022-10-17T04:42:22.270Z,3.08
2022-10-17T04:44:51.251Z,3.33
2022-10-17T04:47:18.465Z,3.33
2022-10-17T04:49:46.179Z,3.67
2022-10-17T04:52:15.116Z,2.92
2022-10-17T04:54:47.754Z,3.95
2022-10-17T04:57:14.696Z,3.83
2022-10-17T04:59:46.415Z,3.20
2022-10-17T05:02:27.497Z,3.05
2022-10-17T05:04:55.039Z,3.85
2022-10-17T05:07:21.661Z,3.33
2022-10-17T05:09:58.824Z,3.10
2022-10-17T05:12:25.619Z,3.40
2022-10-17T05:14:53.436Z,3.30
2022-10-17T05:17:21.000Z,4.55
2022-10-17T05:19:47.611Z,3.85
2022-10-17T05:22:14.392Z,3.55
2022-10-17T05:24:41.809Z,4.05
2022-10-17T05:27:09.305Z,4.93
2022-10-17T05:29:35.917Z,5.70
2022-10-17T05:32:25.279Z,4.85
2022-10-17T05:34:51.918Z,2.90
2022-10-17T05:37:20.206Z,3.03
2022-10-17T05:39:51.593Z,2.92
2022-10-17T05:42:19.317Z,2.83
2022-10-17T05:44:46.865Z,2.42
2022-10-17T05:47:15.663Z,2.50
2022-10-17T05:49:49.781Z,3.00
2022-10-17T05:52:21.420Z,3.08
2022-10-17T05:55:02.295Z,2.97
2022-10-17T05:57:28.915Z,3.20
2022-10-17T05:59:56.282Z,3.40
2022-10-17T06:02:23.165Z,5.05
2022-10-17T06:04:50.385Z,3.55
2022-10-17T06:07:19.312Z,3.63
2022-10-17T06:09:47.366Z,3.65
2022-10-17T06:12:14.616Z,3.42
2022-10-17T06:14:41.398Z,3.70
2022-10-17T06:17:12.090Z,4.40
2022-10-17T06:19:42.041Z,3.97
2022-10-17T06:22:08.661Z,4.40
2022-10-17T06:24:35.914Z,4.20
2022-10-17T06:27:09.392Z,3.42
2022-10-17T06:29:39.414Z,3.72
2022-10-17T06:32:08.659Z,3.55
2022-10-17T06:34:38.437Z,3.47
2022-10-17T06:37:05.203Z,3.40
2022-10-17T06:39:34.549Z,3.00
2022-10-17T06:42:05.861Z,3.83
2022-10-17T06:44:58.778Z,3.17
2022-10-17T06:47:51.650Z,4.25
2022-10-17T06:50:40.608Z,3.78
2022-10-17T06:53:20.415Z,3.50
2022-10-17T06:56:10.453Z,3.30
2022-10-17T06:59:06.164Z,3.63
2022-10-17T07:01:37.395Z,3.63
2022-10-17T07:04:04.772Z,3.65
2022-10-17T07:06:31.805Z,3.83
2022-10-17T07:09:06.710Z,4.10
2022-10-17T07:11:35.945Z,3.42
2022-10-17T07:14:02.675Z,3.40
2022-10-17T07:16:29.383Z,2.97
2022-10-17T07:19:05.765Z,3.72
2022-10-17T07:21:38.995Z,3.25
2022-10-17T07:24:10.307Z,3.63
2022-10-17T07:26:38.202Z,3.47
2022-10-17T07:29:06.486Z,3.40
2022-10-17T07:31:52.087Z,2.97
2022-10-17T07:34:19.177Z,3.00
2022-10-17T07:36:46.291Z,2.95
2022-10-17T07:39:14.533Z,3.28
2022-10-17T07:41:41.241Z,3.55
2022-10-17T07:44:08.139Z,3.00
2022-10-17T07:46:41.136Z,3.65
2022-10-17T07:49:07.822Z,3.13
2022-10-17T07:51:34.517Z,3.70
2022-10-17T07:54:01.454Z,3.90
2022-10-17T07:56:29.653Z,3.63
2022-10-17T08:01:28.561Z,3.63
2022-10-17T08:03:55.181Z,3.28
2022-10-17T08:06:21.763Z,3.42
2022-10-17T08:08:48.366Z,3.75
2022-10-17T08:11:15.236Z,3.35
2022-10-17T08:13:42.599Z,3.20
2022-10-17T08:16:11.597Z,3.30
2022-10-17T08:18:39.095Z,2.75
2022-10-17T08:21:09.263Z,3.97
2022-10-17T08:23:36.382Z,3.75
2022-10-17T08:26:04.194Z,3.85
2022-10-17T08:28:30.872Z,3.90
2022-10-17T08:31:07.329Z,3.13
2022-10-17T08:33:34.251Z,3.70
2022-10-17T08:36:01.579Z,3.58
2022-10-17T08:38:35.060Z,3.40
2022-10-17T08:41:07.861Z,3.50
2022-10-17T08:43:37.505Z,4.10
2022-10-17T08:46:06.491Z,4.72
2022-10-17T08:48:34.944Z,3.63
2022-10-17T08:51:04.741Z,3.65
2022-10-17T08:53:35.135Z,3.55
2022-10-17T08:56:07.232Z,3.92
2022-10-17T08:58:36.521Z,3.72
2022-10-17T09:01:24.025Z,4.05
2022-10-17T09:03:50.602Z,4.10
2022-10-17T09:06:30.040Z,5.43
2022-10-17T09:09:02.940Z,4.25
2022-10-17T09:11:35.517Z,5.15
2022-10-17T09:14:04.882Z,4.45
2022-10-17T09:16:34.655Z,5.38
2022-10-17T09:19:04.491Z,5.45
2022-10-17T09:21:45.691Z,5.95
2022-10-17T09:24:16.370Z,5.18
2022-10-17T09:26:44.496Z,6.50
2022-10-17T09:29:16.004Z,7.35
2022-10-17T09:31:45.329Z,5.82
2022-10-17T09:34:12.044Z,6.50
2022-10-17T09:36:39.712Z,5.43
2022-10-17T09:39:12.360Z,6.10
2022-10-17T09:44:35.234Z,6.57
2022-10-17T09:47:01.895Z,6.13
2022-10-17T09:49:33.039Z,6.68
2022-10-17T09:52:00.797Z,6.43
2022-10-17T09:54:32.407Z,6.70
2022-10-17T09:57:06.898Z,6.95
2022-10-17T09:59:40.970Z,6.07
2022-10-17T10:02:09.486Z,5.95
2022-10-17T10:04:41.568Z,6.35
2022-10-17T10:07:28.290Z,6.40
2022-10-17T10:09:56.224Z,6.97
2022-10-17T10:12:27.294Z,6.72
2022-10-17T10:14:55.433Z,7.15
2022-10-17T10:17:44.175Z,6.85
2022-10-17T10:20:29.628Z,6.85
2022-10-17T10:23:14.263Z,6.20
2022-10-17T10:25:57.938Z,6.63
2022-10-17T10:28:26.969Z,5.95
2022-10-17T10:30:54.366Z,6.13
2022-10-17T10:33:22.167Z,6.00
2022-10-17T10:35:53.481Z,6.90
2022-10-17T10:38:20.884Z,5.80
2022-10-17T10:40:49.271Z,6.18
2022-10-17T10:43:34.521Z,5.95
2022-10-17T10:46:02.293Z,6.53
2022-10-17T10:48:34.278Z,5.93
2022-10-17T10:51:17.192Z,5.82
2022-10-17T10:53:47.422Z,5.75
2022-10-17T10:56:30.084Z,5.80
2022-10-17T10:59:04.849Z,5.75
2022-10-17T11:01:39.606Z,6.00
2022-10-17T11:04:12.162Z,5.57
2022-10-17T11:06:41.408Z,5.55
2022-10-17T11:09:30.036Z,5.65
2022-10-17T11:12:02.661Z,5.95
2022-10-17T11:14:29.220Z,6.10
2022-10-17T11:17:14.755Z,5.95
2022-10-17T11:19:45.146Z,6.90
2022-10-17T11:22:29.262Z,6.50
2022-10-17T11:25:01.277Z,7.40
2022-10-17T11:27:29.442Z,7.38
2022-10-17T11:29:56.316Z,7.10
2022-10-17T11:32:26.160Z,6.97
2022-10-17T11:35:13.172Z,7.10
2022-10-17T11:37:41.640Z,7.32
2022-10-17T11:40:17.211Z,7.63
2022-10-17T11:42:51.922Z,8.07
2022-10-17T11:45:22.031Z,7.45
2022-10-17T11:47:54.310Z,6.80
2022-10-17T11:53:21.806Z,8.13
2022-10-17T11:55:49.105Z,7.78
2022-10-17T12:01:08.181Z,6.78
2022-10-17T12:03:49.841Z,7.95
2022-10-17T12:06:27.096Z,7.47
2022-10-17T12:09:08.307Z,6.90
2022-10-17T12:11:37.926Z,5.30
2022-10-17T12:14:24.467Z,4.95
2022-10-17T12:16:51.133Z,5.07
2022-10-17T12:19:23.201Z,5.88
2022-10-17T12:22:04.025Z,5.35
2022-10-17T12:24:41.781Z,6.00
2022-10-17T12:27:27.666Z,6.53
2022-10-17T12:30:01.728Z,6.28
2022-10-17T12:32:36.830Z,6.35
2022-10-17T12:35:20.297Z,5.68
2022-10-17T12:37:49.664Z,4.28
2022-10-17T12:40:34.941Z,3.90
2022-10-17T12:43:13.691Z,3.70
2022-10-17T12:45:49.280Z,4.07
2022-10-17T12:48:36.159Z,4.38
2022-10-17T12:53:59.872Z,4.07
2022-10-17T12:56:42.798Z,4.07
2022-10-17T12:59:14.670Z,4.20
2022-10-17T13:01:43.732Z,3.88
2022-10-17T13:04:10.818Z,4.07
2022-10-17T13:06:40.418Z,3.35
2022-10-17T13:09:16.290Z,3.95
2022-10-17T13:11:43.213Z,4.60
2022-10-17T13:14:14.703Z,3.63
2022-10-17T13:16:51.252Z,3.55
2022-10-17T13:19:19.209Z,3.40
2022-10-17T13:21:56.016Z,3.25
2022-10-17T13:24:23.702Z,3.63
2022-10-17T13:26:50.344Z,3.20
2022-10-17T13:29:18.016Z,3.75
2022-10-17T13:31:44.827Z,3.60
2022-10-17T13:34:25.228Z,3.35
2022-10-17T13:36:53.703Z,3.17
2022-10-17T13:39:32.689Z,3.15
2022-10-17T13:42:36.005Z,3.20
2022-10-17T13:45:02.699Z,3.40
2022-10-17T13:47:30.760Z,3.20
2022-10-17T13:49:58.339Z,3.05
2022-10-17T13:52:27.106Z,3.60
2022-10-17T13:54:54.084Z,3.42
2022-10-17T13:57:24.794Z,2.97
2022-10-17T13:59:55.633Z,2.78
2022-10-17T14:02:29.565Z,3.33
2022-10-17T14:05:29.977Z,3.00
2022-10-17T14:08:09.955Z,3.00
2022-10-17T14:10:35.303Z,3.63
2022-10-17T14:13:04.299Z,3.33
2022-10-17T14:15:31.906Z,3.50
2022-10-17T14:18:04.219Z,3.33
2022-10-17T14:21:19.427Z,2.88
2022-10-17T14:23:31.196Z,2.70
2022-10-17T14:26:08.813Z,2.72
2022-10-17T14:28:35.811Z,2.75
2022-10-17T14:31:10.454Z,2.78
2022-10-17T14:33:39.903Z,2.80
2022-10-17T14:36:09.285Z,2.60
2022-10-17T14:38:36.398Z,2.65
2022-10-17T14:41:37.732Z,2.70
2022-10-17T14:44:04.821Z,2.67
2022-10-17T14:46:31.428Z,3.25
2022-10-17T14:49:08.447Z,2.63
2022-10-17T14:51:44.836Z,3.05
2022-10-17T14:54:21.805Z,2.90
2022-10-17T14:56:52.746Z,2.55
2022-10-17T14:59:51.450Z,2.90
2022-10-17T15:02:09.352Z,2.63
2022-10-17T15:04:35.974Z,3.00
2022-10-17T15:07:02.616Z,2.95
2022-10-17T15:09:29.386Z,3.42
2022-10-17T15:11:59.743Z,3.40
2022-10-17T15:14:26.399Z,3.45
2022-10-17T15:16:52.979Z,3.65
2022-10-17T15:19:21.561Z,3.00
2022-10-17T15:21:48.108Z,2.95
2022-10-17T15:24:15.856Z,3.80
2022-10-17T15:26:42.692Z,3.80
2022-10-17T15:29:14.140Z,3.80
2022-10-17T15:31:41.594Z,3.90
2022-10-17T15:34:08.214Z,2.50
2022-10-17T15:36:39.024Z,2.95
2022-10-17T15:39:05.688Z,2.90
2022-10-17T15:41:33.141Z,2.67
2022-10-17T15:44:00.299Z,2.53
2022-10-17T15:46:32.707Z,3.28
2022-10-17T15:49:03.994Z,2.70
2022-10-17T15:51:30.621Z,3.22
2022-10-17T15:53:57.252Z,3.20
2022-10-17T15:56:26.412Z,3.17
2022-10-17T15:58:53.054Z,3.45
2022-10-17T16:01:22.329Z,3.10
2022-10-17T16:03:50.499Z,3.20
2022-10-17T16:06:18.515Z,2.75
2022-10-17T16:08:46.301Z,3.60
2022-10-17T16:11:28.103Z,3.10
2022-10-17T16:13:56.094Z,3.20
2022-10-17T16:16:22.881Z,3.25
2022-10-17T16:18:49.449Z,2.90
2022-10-17T16:21:16.993Z,3.38
2022-10-17T16:23:44.186Z,2.97
2022-10-17T16:26:14.029Z,3.67
2022-10-17T16:28:45.993Z,3.13
2022-10-17T16:31:19.528Z,2.80
2022-10-17T16:33:46.697Z,3.00
2022-10-17T16:36:13.270Z,2.80
2022-10-17T16:38:39.961Z,2.92
2022-10-17T16:41:21.420Z,3.08
2022-10-17T16:43:51.910Z,2.70
2022-10-17T16:46:18.968Z,2.80
2022-10-17T16:48:45.837Z,2.92
2022-10-17T16:51:12.973Z,3.30
2022-10-17T16:53:43.599Z,2.45
2022-10-17T16:56:14.414Z,2.50
2022-10-17T16:58:41.768Z,2.50
2022-10-17T17:01:13.307Z,2.70
2022-10-17T17:03:41.113Z,2.45
2022-10-17T17:06:08.279Z,2.97
2022-10-17T17:08:37.141Z,4.32
2022-10-17T17:11:07.108Z,2.63
2022-10-17T17:13:33.750Z,2.45
2022-10-17T17:16:04.682Z,3.33
2022-10-17T17:18:31.706Z,3.05
2022-10-17T17:20:59.670Z,2.80
2022-10-17T17:23:26.356Z,2.85
2022-10-17T17:25:59.757Z,2.97
2022-10-17T17:28:26.805Z,2.83
2022-10-17T17:30:53.744Z,2.83
2022-10-17T17:33:20.742Z,2.80
2022-10-17T17:35:47.361Z,2.42
2022-10-17T17:38:14.326Z,2.75
2022-10-17T17:40:49.635Z,2.72
2022-10-17T17:43:17.837Z,2.30
2022-10-17T17:45:44.401Z,2.60
2022-10-17T17:48:12.234Z,2.38
2022-10-17T17:50:39.766Z,2.40
2022-10-17T17:53:07.041Z,2.30
2022-10-17T17:55:34.003Z,2.78
2022-10-17T17:58:00.602Z,2.22
2022-10-17T18:00:27.732Z,2.40
2022-10-17T18:02:54.436Z,2.50
2022-10-17T18:05:21.028Z,3.13
2022-10-17T18:07:47.860Z,2.50
2022-10-17T18:12:42.323Z,2.80
2022-10-17T18:15:09.069Z,2.53
2022-10-17T18:17:35.748Z,2.90
2022-10-17T18:20:03.481Z,2.75
2022-10-17T18:22:30.319Z,2.90
2022-10-17T18:24:57.290Z,2.65
2022-10-17T18:27:25.796Z,3.03
2022-10-17T18:29:52.472Z,2.83
2022-10-17T18:32:19.077Z,3.25
2022-10-17T18:34:45.632Z,3.67
2022-10-17T18:37:12.332Z,3.17
2022-10-17T18:39:38.977Z,3.33
2022-10-17T18:42:05.564Z,3.38
2022-10-17T18:44:32.175Z,3.28
2022-10-17T18:47:03.004Z,2.95
2022-10-17T18:49:31.082Z,2.90
2022-10-17T18:51:57.715Z,2.70
2022-10-17T18:54:24.512Z,3.83
2022-10-17T18:56:51.912Z,3.22
2022-10-17T18:59:18.984Z,2.88
2022-10-17T19:01:45.745Z,3.08
2022-10-17T19:04:12.453Z,3.00
2022-10-17T19:06:39.475Z,3.08
2022-10-17T19:09:06.930Z,3.08
2022-10-17T19:11:34.578Z,3.00
2022-10-17T19:14:04.046Z,3.00
2022-10-17T19:16:37.459Z,2.80
2022-10-17T19:19:12.079Z,2.47
2022-10-17T19:21:39.291Z,2.72
2022-10-17T19:24:07.183Z,2.92
2022-10-17T19:26:35.633Z,2.63
2022-10-17T19:29:02.763Z,2.83
2022-10-17T19:31:31.542Z,2.90
2022-10-17T19:33:58.560Z,2.75
2022-10-17T19:36:30.469Z,2.42
2022-10-17T19:39:01.542Z,2.97
2022-10-17T19:41:28.352Z,2.80
2022-10-17T19:43:55.283Z,2.70
2022-10-17T19:46:23.987Z,2.70
2022-10-17T19:48:50.812Z,3.00
2022-10-17T19:51:18.466Z,2.85
2022-10-17T19:53:45.651Z,2.67
2022-10-17T19:56:12.272Z,3.20
2022-10-17T19:58:46.476Z,2.90
2022-10-17T20:01:14.804Z,2.72
2022-10-17T20:03:41.564Z,2.90
2022-10-17T20:06:08.428Z,3.35
2022-10-17T20:08:35.390Z,2.78
2022-10-17T20:11:02.828Z,2.72
2022-10-17T20:13:29.444Z,2.97
2022-10-17T20:15:57.024Z,2.70
2022-10-17T20:18:23.772Z,2.88
2022-10-17T20:20:50.481Z,2.70
2022-10-17T20:23:17.086Z,2.70
2022-10-17T20:25:44.125Z,2.83
2022-10-17T20:28:10.808Z,2.95
2022-10-17T20:30:37.463Z,2.78
2022-10-17T20:33:04.117Z,2.83
2022-10-17T20:35:30.723Z,2.90
2022-10-17T20:37:57.304Z,3.15
2022-10-17T20:40:34.767Z,2.90
2022-10-17T20:43:02.067Z,2.90
2022-10-17T20:45:43.673Z,3.20
2022-10-17T20:48:15.670Z,3.33
2022-10-17T20:50:42.933Z,3.72
2022-10-17T20:53:34.951Z,3.35
2022-10-17T20:56:03.189Z,3.15
2022-10-17T20:58:29.893Z,3.33
2022-10-17T21:00:56.438Z,3.35
2022-10-17T21:03:23.157Z,2.90
2022-10-17T21:05:49.771Z,2.60
2022-10-17T21:08:16.362Z,2.90
2022-10-17T21:10:42.956Z,3.00
2022-10-17T21:13:09.678Z,2.78
2022-10-17T21:15:36.295Z,2.97
2022-10-17T21:18:02.976Z,2.95
2022-10-17T21:20:29.645Z,2.90
2022-10-17T21:22:57.349Z,3.10
2022-10-17T21:25:23.916Z,2.60
2022-10-17T21:27:51.980Z,3.03
2022-10-17T21:30:19.810Z,2.63
2022-10-17T21:32:51.363Z,2.65
2022-10-17T21:35:18.544Z,2.97
2022-10-17T21:37:45.146Z,2.55
2022-10-17T21:40:12.125Z,3.30
2022-10-17T21:42:38.826Z,3.22
2022-10-17T21:45:10.770Z,4.15
2022-10-17T21:47:54.863Z,3.08
2022-10-17T21:50:27.800Z,2.95
2022-10-17T21:52:54.421Z,2.95
2022-10-17T21:55:21.049Z,2.70
2022-10-17T21:57:47.706Z,2.63
2022-10-17T22:00:14.468Z,2.65
2022-10-17T22:02:41.712Z,3.05
2022-10-17T22:05:08.602Z,2.80
2022-10-17T22:07:35.257Z,3.53
2022-10-17T22:10:02.678Z,2.90
2022-10-17T22:12:29.618Z,2.85
2022-10-17T22:14:56.482Z,2.83
2022-10-17T22:17:23.219Z,2.97
2022-10-17T22:19:49.773Z,3.17
2022-10-17T22:22:16.339Z,2.38
2022-10-17T22:24:42.943Z,2.90
2022-10-17T22:27:12.370Z,3.63
2022-10-17T22:29:39.733Z,3.42
2022-10-17T22:32:06.329Z,2.60
2022-10-17T22:34:32.917Z,3.08
2022-10-17T22:36:59.537Z,2.85
2022-10-17T22:39:26.113Z,3.05
2022-10-17T22:41:52.719Z,3.15
2022-10-17T22:44:19.255Z,3.30
2022-10-17T22:46:45.823Z,3.30
2022-10-17T22:49:12.543Z,3.35
2022-10-17T22:51:39.133Z,3.13
2022-10-17T22:54:06.040Z,3.10
2022-10-17T22:56:32.692Z,3.10
2022-10-17T22:58:59.347Z,2.42
2022-10-17T23:01:25.965Z,3.13
2022-10-17T23:03:52.854Z,2.92
2022-10-17T23:06:20.120Z,3.58
2022-10-17T23:08:47.115Z,3.25
2022-10-17T23:11:13.790Z,3.35
2022-10-17T23:13:40.993Z,3.13
2022-10-17T23:16:08.069Z,3.40
2022-10-17T23:18:34.974Z,3.33
2022-10-17T23:21:01.610Z,3.47
2022-10-17T23:23:28.201Z,3.47
2022-10-17T23:25:54.890Z,3.67
2022-10-17T23:28:21.510Z,3.08
2022-10-17T23:30:48.162Z,3.30
2022-10-17T23:33:14.805Z,3.25
2022-10-17T23:35:41.452Z,4.07
2022-10-17T23:38:08.258Z,2.95
2022-10-17T23:40:35.387Z,3.35
2022-10-17T23:43:02.757Z,3.67
2022-10-17T23:45:31.311Z,3.40
2022-10-17T23:48:00.142Z,3.75
2022-10-17T23:50:26.762Z,4.95
2022-10-17T23:52:53.361Z,3.70
2022-10-17T23:55:20.015Z,3.55
2022-10-17T23:57:46.589Z,4.22
